Time,TemperatureF,DewpointF,PressureIn,WindDirection,WindDirectionDegrees,WindSpeedMPH,WindSpeedGustMPH,Humidity,HourlyPrecipIn,Conditions,Clouds,dailyrainin,SoftwareType,DateUTC
2013-07-20 00:00:00,72.3,69.2,29.69,South,185,10.0,22.0,90,0.00,,,0.00,Wunderground v.1.15,2013-07-20 03:00:00,
2013-07-20 00:10:00,72.7,69.6,29.68,SSW,202,10.0,22.0,90,0.00,,,0.00,Wunderground v.1.15,2013-07-20 03:10:00,
2013-07-20 00:20:00,72.7,69.6,29.68,South,188,10.0,10.0,90,0.00,,,0.00,Wunderground v.1.15,2013-07-20 03:20:00,
2013-07-20 00:30:00,72.6,69.5,29.67,SSE,156,9.0,9.0,90,0.00,,,0.00,Wunderground v.1.15,2013-07-20 03:30:00,
2013-07-20 00:40:00,72.5,69.4,29.63,SSW,204,9.0,22.0,90,0.00,,,0.00,Wunderground v.1.15,2013-07-20 03:40:00,
2013-07-20 00:50:00,72.4,69.3,29.65,SSW,210,8.0,8.0,90,0.00,,,0.00,Wunderground v.1.15,2013-07-20 03:50:00,
2013-07-20 01:00:00,72.4,69.3,29.64,SSE,167,8.0,22.0,90,0.00,,,0.00,Wunderground v.1.15,2013-07-20 04:00:00,
2013-07-20 01:10:00,72.7,69.3,29.65,SSW,203,9.0,22.0,89,0.00,,,0.00,Wunderground v.1.15,2013-07-20 04:10:00,
2013-07-20 01:20:00,72.9,69.5,29.67,SSW,204,8.0,22.0,89,0.00,,,0.00,Wunderground v.1.15,2013-07-20 04:20:00,
2013-07-20 01:30:00,73.0,69.6,29.66,SSW,212,8.0,22.0,89,0.00,,,0.00,Wunderground v.1.15,2013-07-20 04:30:00,
2013-07-20 01:40:00,73.0,69.6,29.66,SSW,195,8.0,22.0,89,0.00,,,0.00,Wunderground v.1.15,2013-07-20 04:40:00,
2013-07-20 01:50:00,72.9,69.5,29.63,SSW,200,8.0,8.0,89,0.00,,,0.00,Wunderground v.1.15,2013-07-20 04:50:00,
2013-07-20 02:00:00,72.8,69.4,29.65,SE,146,6.0,22.0,89,0.00,,,0.00,Wunderground v.1.15,2013-07-20 05:00:00,
2013-07-20 02:10:00,72.8,69.4,29.65,South,176,7.0,7.0,89,0.00,,,0.00,Wunderground v.1.15,2013-07-20 05:10:00,
2013-07-20 02:20:00,72.8,69.0,29.65,SSW,195,6.0,22.0,88,0.00,,,0.00,Wunderground v.1.15,2013-07-20 05:20:00,
2013-07-20 02:30:00,72.9,68.8,29.65,SSW,200,8.0,8.0,87,0.00,,,0.00,Wunderground v.1.15,2013-07-20 05:30:00,
2013-07-20 02:40:00,73.0,68.9,29.65,SSW,205,8.0,8.0,87,0.00,,,0.00,Wunderground v.1.15,2013-07-20 05:40:00,
2013-07-20 02:50:00,73.1,68.7,29.65,SW,217,9.0,9.0,86,0.00,,,0.00,Wunderground v.1.15,2013-07-20 05:50:00,
2013-07-20 03:00:00,72.8,68.7,29.62,SW,218,9.0,22.0,87,0.00,,,0.00,Wunderground v.1.15,2013-07-20 06:00:00,
2013-07-20 03:10:00,72.6,68.5,29.65,South,186,7.0,22.0,87,0.00,,,0.00,Wunderground v.1.15,2013-07-20 06:10:00,
2013-07-20 03:20:00,72.3,68.5,29.65,SSW,197,7.0,22.0,88,0.00,,,0.00,Wunderground v.1.15,2013-07-20 06:20:00,
2013-07-20 03:30:00,72.3,68.5,29.64,South,170,7.0,22.0,88,0.00,,,0.00,Wunderground v.1.15,2013-07-20 06:30:00,
2013-07-20 03:40:00,72.2,68.4,29.64,SSW,200,7.0,22.0,88,0.00,,,0.00,Wunderground v.1.15,2013-07-20 06:40:00,
2013-07-20 03:50:00,72.0,68.2,29.64,SSE,167,7.0,22.0,88,0.00,,,0.00,Wunderground v.1.15,2013-07-20 06:50:00,
2013-07-20 04:00:00,71.8,68.4,29.64,SSW,201,7.0,7.0,89,0.00,,,0.00,Wunderground v.1.15,2013-07-20 07:00:00,
2013-07-20 04:10:00,71.7,68.3,29.61,SE,146,6.0,22.0,89,0.00,,,0.00,Wunderground v.1.15,2013-07-20 07:10:00,
2013-07-20 04:20:00,71.6,68.2,29.64,SW,221,6.0,22.0,89,0.00,,,0.00,Wunderground v.1.15,2013-07-20 07:20:00,
2013-07-20 04:30:00,71.5,68.1,29.64,SSW,197,7.0,22.0,89,0.00,,,0.00,Wunderground v.1.15,2013-07-20 07:30:00,
2013-07-20 04:40:00,71.4,68.3,29.64,SSW,211,7.0,7.0,90,0.00,,,0.00,Wunderground v.1.15,2013-07-20 07:40:00,
2013-07-20 04:50:00,71.5,68.4,29.64,South,191,7.0,7.0,90,0.00,,,0.00,Wunderground v.1.15,2013-07-20 07:50:00,
2013-07-20 05:00:00,71.4,68.3,29.64,South,188,7.0,22.0,90,0.00,,,0.00,Wunderground v.1.15,2013-07-20 08:00:00,
2013-07-20 05:10:00,71.5,68.4,29.63,SSW,204,8.0,8.0,90,0.00,,,0.00,Wunderground v.1.15,2013-07-20 08:10:00,
2013-07-20 05:20:00,71.4,68.3,29.60,SSW,207,7.0,7.0,90,0.00,,,0.00,Wunderground v.1.15,2013-07-20 08:20:00,
2013-07-20 05:30:00,71.2,68.1,29.63,SSW,207,7.0,22.0,90,0.00,,,0.00,Wunderground v.1.15,2013-07-20 08:30:00,
2013-07-20 05:40:00,71.1,68.0,29.61,WSW,243,7.0,7.0,90,0.00,,,0.00,Wunderground v.1.15,2013-07-20 08:40:00,
2013-07-20 05:50:00,71.0,67.9,29.64,SSW,200,7.0,7.0,90,0.00,,,0.00,Wunderground v.1.15,2013-07-20 08:50:00,
2013-07-20 06:00:00,70.8,67.7,29.64,South,183,7.0,7.0,90,0.00,,,0.00,Wunderground v.1.15,2013-07-20 09:00:00,
2013-07-20 06:10:00,70.6,67.8,29.65,South,169,7.0,7.0,91,0.00,,,0.00,Wunderground v.1.15,2013-07-20 09:10:00,
2013-07-20 06:20:00,70.3,67.5,29.65,SW,228,6.0,22.0,91,0.00,,,0.00,Wunderground v.1.15,2013-07-20 09:20:00,
2013-07-20 06:30:00,70.2,67.1,29.65,SSE,152,6.0,22.0,90,0.00,,,0.00,Wunderground v.1.15,2013-07-20 09:30:00,
2013-07-20 06:40:00,70.6,67.2,29.65,South,173,6.0,6.0,89,0.00,,,0.00,Wunderground v.1.15,2013-07-20 09:40:00,
2013-07-20 06:50:00,71.2,67.5,29.65,SSW,204,6.0,6.0,88,0.00,,,0.00,Wunderground v.1.15,2013-07-20 09:50:00,
2013-07-20 07:00:00,71.7,67.6,29.65,SSE,152,5.0,22.0,87,0.00,,,0.00,Wunderground v.1.15,2013-07-20 10:00:00,
2013-07-20 07:10:00,71.6,67.2,29.65,South,181,7.0,7.0,86,0.00,,,0.00,Wunderground v.1.15,2013-07-20 10:10:00,
2013-07-20 07:20:00,71.6,67.2,29.65,South,181,8.0,8.0,86,0.00,,,0.00,Wunderground v.1.15,2013-07-20 10:20:00,
2013-07-20 07:30:00,71.7,67.3,29.65,SSW,193,7.0,22.0,86,0.00,,,0.00,Wunderground v.1.15,2013-07-20 10:30:00,
2013-07-20 07:40:00,71.9,67.1,29.65,South,188,8.0,8.0,85,0.00,,,0.00,Wunderground v.1.15,2013-07-20 10:40:00,
2013-07-20 07:50:00,72.4,67.6,29.66,WSW,238,7.0,22.0,85,0.00,,,0.00,Wunderground v.1.15,2013-07-20 10:50:00,
2013-07-20 08:00:00,72.9,67.4,29.67,SSW,193,7.0,22.0,83,0.00,,,0.00,Wunderground v.1.15,2013-07-20 11:00:00,
2013-07-20 08:10:00,73.5,67.7,29.64,South,170,6.0,22.0,82,0.00,,,0.00,Wunderground v.1.15,2013-07-20 11:10:00,
2013-07-20 08:20:00,74.0,68.2,29.67,South,183,6.0,6.0,82,0.00,,,0.00,Wunderground v.1.15,2013-07-20 11:20:00,
2013-07-20 08:30:00,74.3,68.1,29.67,SW,216,5.0,22.0,81,0.00,,,0.00,Wunderground v.1.15,2013-07-20 11:30:00,
2013-07-20 08:40:00,74.6,68.4,29.67,SSW,201,7.0,22.0,81,0.00,,,0.00,Wunderground v.1.15,2013-07-20 11:40:00,
2013-07-20 08:50:00,74.9,68.3,29.65,ESE,120,6.0,22.0,80,0.00,,,0.00,Wunderground v.1.15,2013-07-20 11:50:00,
2013-07-20 09:00:00,75.2,67.9,29.66,South,190,7.0,7.0,78,0.00,,,0.00,Wunderground v.1.15,2013-07-20 12:00:00,
2013-07-20 09:10:00,74.6,67.7,29.68,South,186,6.0,6.0,79,0.00,,,0.00,Wunderground v.1.15,2013-07-20 12:10:00,
2013-07-20 09:20:00,74.1,67.5,29.69,South,181,6.0,6.0,80,0.00,,,0.00,Wunderground v.1.15,2013-07-20 12:20:00,
2013-07-20 09:30:00,73.8,67.2,29.68,SSW,200,5.0,22.0,80,0.00,,,0.00,Wunderground v.1.15,2013-07-20 12:30:00,
2013-07-20 09:40:00,73.9,67.7,29.66,SW,226,5.0,22.0,81,0.00,,,0.00,Wunderground v.1.15,2013-07-20 12:40:00,
2013-07-20 09:50:00,74.7,68.1,29.68,SSW,208,5.0,5.0,80,0.00,,,0.00,Wunderground v.1.15,2013-07-20 12:50:00,
2013-07-20 10:00:00,76.1,68.7,29.68,South,190,5.0,22.0,78,0.00,,,0.00,Wunderground v.1.15,2013-07-20 13:00:00,
2013-07-20 10:10:00,77.4,69.6,29.68,SSW,201,5.0,22.0,77,0.00,,,0.00,Wunderground v.1.15,2013-07-20 13:10:00,
2013-07-20 10:20:00,78.5,69.5,29.68,SSW,197,5.0,22.0,74,0.00,,,0.00,Wunderground v.1.15,2013-07-20 13:20:00,
2013-07-20 10:30:00,79.1,69.3,29.66,SSW,208,6.0,22.0,72,0.00,,,0.00,Wunderground v.1.15,2013-07-20 13:30:00,
2013-07-20 10:40:00,80.1,70.3,29.66,SSW,203,5.0,22.0,72,0.00,,,0.00,Wunderground v.1.15,2013-07-20 13:40:00,
2013-07-20 10:50:00,80.7,70.0,29.68,SSW,212,6.0,6.0,70,0.00,,,0.00,Wunderground v.1.15,2013-07-20 13:50:00,
2013-07-20 11:00:00,81.2,70.5,29.68,SW,219,6.0,6.0,70,0.00,,,0.00,Wunderground v.1.15,2013-07-20 14:00:00,
2013-07-20 11:10:00,81.5,69.9,29.68,South,177,6.0,6.0,68,0.00,,,0.00,Wunderground v.1.15,2013-07-20 14:10:00,
2013-07-20 11:20:00,81.8,70.2,29.68,SW,232,5.0,22.0,68,0.00,,,0.00,Wunderground v.1.15,2013-07-20 14:20:00,
2013-07-20 11:30:00,82.5,70.4,29.69,SE,143,6.0,6.0,67,0.00,,,0.00,Wunderground v.1.15,2013-07-20 14:30:00,
2013-07-20 11:40:00,82.8,70.3,29.69,SSE,156,6.0,6.0,66,0.00,,,0.00,Wunderground v.1.15,2013-07-20 14:40:00,
2013-07-20 11:50:00,82.6,69.6,29.68,SW,225,7.0,22.0,65,0.00,,,0.00,Wunderground v.1.15,2013-07-20 14:50:00,
2013-07-20 12:00:00,82.5,69.1,29.68,SSE,162,8.0,8.0,64,0.00,,,0.00,Wunderground v.1.15,2013-07-20 15:00:00,
2013-07-20 12:10:00,83.7,70.2,29.68,SSW,192,6.0,6.0,64,0.00,,,0.00,Wunderground v.1.15,2013-07-20 15:10:00,
2013-07-20 12:20:00,83.5,70.0,29.68,SSW,203,7.0,22.0,64,0.00,,,0.00,Wunderground v.1.15,2013-07-20 15:20:00,
2013-07-20 12:30:00,83.8,70.8,29.68,South,191,5.0,22.0,65,0.00,,,0.00,Wunderground v.1.15,2013-07-20 15:30:00,
2013-07-20 12:40:00,82.8,70.3,29.66,SSW,205,6.0,22.0,66,0.00,,,0.00,Wunderground v.1.15,2013-07-20 15:40:00,
2013-07-20 12:50:00,83.1,70.1,29.66,SSW,200,7.0,22.0,65,0.00,,,0.00,Wunderground v.1.15,2013-07-20 15:50:00,
2013-07-20 13:00:00,83.7,71.1,29.68,SW,236,6.0,22.0,66,0.00,,,0.00,Wunderground v.1.15,2013-07-20 16:00:00,
2013-07-20 13:10:00,84.0,69.6,29.69,South,172,6.0,6.0,62,0.00,,,0.00,Wunderground v.1.15,2013-07-20 16:10:00,
2013-07-20 13:20:00,83.5,70.5,29.69,South,188,6.0,22.0,65,0.00,,,0.00,Wunderground v.1.15,2013-07-20 16:20:00,
2013-07-20 13:30:00,84.2,70.7,29.69,SSW,195,7.0,22.0,64,0.00,,,0.00,Wunderground v.1.15,2013-07-20 16:30:00,
2013-07-20 13:40:00,84.3,70.3,29.68,SW,218,7.0,22.0,63,0.00,,,0.00,Wunderground v.1.15,2013-07-20 16:40:00,
2013-07-20 13:50:00,84.1,70.6,29.66,SW,221,6.0,6.0,64,0.00,,,0.00,Wunderground v.1.15,2013-07-20 16:50:00,
2013-07-20 14:00:00,83.6,70.1,29.67,SSW,204,5.0,5.0,64,0.00,,,0.00,Wunderground v.1.15,2013-07-20 17:00:00,
2013-07-20 14:10:00,84.5,71.0,29.69,NW,319,4.0,22.0,64,0.00,,,0.00,Wunderground v.1.15,2013-07-20 17:10:00,
2013-07-20 14:20:00,84.5,70.5,29.69,South,177,5.0,5.0,63,0.00,,,0.00,Wunderground v.1.15,2013-07-20 17:20:00,
2013-07-20 14:30:00,84.7,70.2,29.69,South,190,5.0,22.0,62,0.00,,,0.00,Wunderground v.1.15,2013-07-20 17:30:00,
2013-07-20 14:40:00,84.6,70.1,29.69,SW,222,5.0,22.0,62,0.00,,,0.00,Wunderground v.1.15,2013-07-20 17:40:00,
2013-07-20 14:50:00,84.5,70.0,29.66,SSW,212,6.0,22.0,62,0.00,,,0.00,Wunderground v.1.15,2013-07-20 17:50:00,
2013-07-20 15:00:00,85.1,70.1,29.66,SW,215,5.0,5.0,61,0.00,,,0.00,Wunderground v.1.15,2013-07-20 18:00:00,
2013-07-20 15:10:00,85.7,70.7,29.69,WSW,255,4.0,4.0,61,0.00,,,0.00,Wunderground v.1.15,2013-07-20 18:10:00,
2013-07-20 15:20:00,86.5,71.5,29.69,South,190,5.0,5.0,61,0.00,,,0.00,Wunderground v.1.15,2013-07-20 18:20:00,
2013-07-20 15:30:00,85.8,70.3,29.66,SSW,203,6.0,6.0,60,0.00,,,0.00,Wunderground v.1.15,2013-07-20 18:30:00,
2013-07-20 15:40:00,86.1,70.6,29.67,SSW,208,6.0,22.0,60,0.00,,,0.00,Wunderground v.1.15,2013-07-20 18:40:00,
2013-07-20 15:50:00,86.0,70.0,29.69,SW,218,5.0,22.0,59,0.00,,,0.00,Wunderground v.1.15,2013-07-20 18:50:00,
2013-07-20 16:00:00,86.1,70.1,29.69,SW,215,5.0,5.0,59,0.00,,,0.00,Wunderground v.1.15,2013-07-20 19:00:00,
2013-07-20 16:10:00,86.1,69.6,29.66,SSW,210,7.0,22.0,58,0.00,,,0.00,Wunderground v.1.15,2013-07-20 19:10:00,
2013-07-20 16:20:00,86.3,70.3,29.68,SSW,212,5.0,22.0,59,0.00,,,0.00,Wunderground v.1.15,2013-07-20 19:20:00,
2013-07-20 16:30:00,86.4,69.9,29.68,SSE,162,5.0,5.0,58,0.00,,,0.00,Wunderground v.1.15,2013-07-20 19:30:00,
2013-07-20 17:00:00,86.5,68.9,29.67,South,173,7.0,7.0,56,0.00,,,0.00,Wunderground v.1.15,2013-07-20 20:00:00,
2013-07-20 17:10:00,86.1,69.6,29.68,SSE,148,6.0,6.0,58,0.00,,,0.00,Wunderground v.1.15,2013-07-20 20:10:00,
2013-07-20 17:20:00,86.9,69.8,29.65,South,179,5.0,22.0,57,0.00,,,0.00,Wunderground v.1.15,2013-07-20 20:20:00,
2013-07-20 17:30:00,86.5,68.9,29.68,SSE,165,7.0,22.0,56,0.00,,,0.00,Wunderground v.1.15,2013-07-20 20:30:00,
2013-07-20 17:40:00,85.5,68.5,29.67,SW,232,6.0,6.0,57,0.00,,,0.00,Wunderground v.1.15,2013-07-20 20:40:00,
2013-07-20 17:50:00,84.5,68.6,29.67,SSW,212,5.0,5.0,59,0.00,,,0.00,Wunderground v.1.15,2013-07-20 20:50:00,
2013-07-20 18:00:00,84.0,68.6,29.64,SW,218,5.0,22.0,60,0.00,,,0.00,Wunderground v.1.15,2013-07-20 21:00:00,
2013-07-20 18:10:00,83.6,68.7,29.64,SSW,200,3.0,3.0,61,0.00,,,0.00,Wunderground v.1.15,2013-07-20 21:10:00,
2013-07-20 18:20:00,83.5,69.1,29.67,SSW,207,2.0,22.0,62,0.00,,,0.00,Wunderground v.1.15,2013-07-20 21:20:00,
2013-07-20 18:30:00,83.1,69.7,29.67,SSW,204,4.0,4.0,64,0.00,,,0.00,Wunderground v.1.15,2013-07-20 21:30:00,
2013-07-20 18:40:00,82.5,69.5,29.67,SW,218,5.0,5.0,65,0.00,,,0.00,Wunderground v.1.15,2013-07-20 21:40:00,
2013-07-20 18:50:00,81.9,69.9,29.65,SSW,212,4.0,4.0,67,0.00,,,0.00,Wunderground v.1.15,2013-07-20 21:50:00,
2013-07-20 19:00:00,81.5,69.9,29.65,West,269,2.0,22.0,68,0.00,,,0.00,Wunderground v.1.15,2013-07-20 22:00:00,
2013-07-20 19:10:00,80.5,70.2,29.65,WSW,242,3.0,22.0,71,0.00,,,0.00,Wunderground v.1.15,2013-07-20 22:10:00,
2013-07-20 19:20:00,79.7,69.9,29.68,SSW,199,3.0,22.0,72,0.00,,,0.00,Wunderground v.1.15,2013-07-20 22:20:00,
2013-07-20 19:30:00,78.7,69.3,29.68,WSW,252,6.0,22.0,73,0.00,,,0.00,Wunderground v.1.15,2013-07-20 22:30:00,
2013-07-20 19:40:00,77.7,69.1,29.68,SW,230,5.0,5.0,75,0.00,,,0.00,Wunderground v.1.15,2013-07-20 22:40:00,
2013-07-20 19:50:00,77.6,69.0,29.68,South,191,3.0,3.0,75,0.00,,,0.00,Wunderground v.1.15,2013-07-20 22:50:00,
2013-07-20 20:00:00,77.5,68.9,29.68,South,182,2.0,2.0,75,0.00,,,0.00,Wunderground v.1.15,2013-07-20 23:00:00,
2013-07-20 20:10:00,77.3,69.1,29.68,South,179,1.0,1.0,76,0.00,,,0.00,Wunderground v.1.15,2013-07-20 23:10:00,
2013-07-20 20:20:00,77.0,68.9,29.68,SSW,205,0.0,22.0,76,0.00,,,0.00,Wunderground v.1.15,2013-07-20 23:20:00,
2013-07-20 20:30:00,76.7,68.6,29.67,West,264,0.0,22.0,76,0.00,,,0.00,Wunderground v.1.15,2013-07-20 23:30:00,
2013-07-20 20:40:00,76.6,68.5,29.68,SSW,198,0.0,22.0,76,0.00,,,0.00,Wunderground v.1.15,2013-07-20 23:40:00,
2013-07-20 20:50:00,76.2,68.5,29.68,South,174,0.0,22.0,77,0.00,,,0.00,Wunderground v.1.15,2013-07-20 23:50:00,
2013-07-20 21:00:00,75.8,68.4,29.68,SSW,211,0.0,22.0,78,0.00,,,0.00,Wunderground v.1.15,2013-07-21 00:00:00,
2013-07-20 21:10:00,75.5,68.5,29.68,South,171,0.0,22.0,79,0.00,,,0.00,Wunderground v.1.15,2013-07-21 00:10:00,
2013-07-20 21:20:00,75.6,68.3,29.69,SSW,197,0.0,22.0,78,0.00,,,0.00,Wunderground v.1.15,2013-07-21 00:20:00,
2013-07-20 21:30:00,75.9,67.4,29.69,South,183,5.0,22.0,75,0.00,,,0.00,Wunderground v.1.15,2013-07-21 00:30:00,
2013-07-20 22:00:00,74.5,66.4,29.68,SW,214,8.0,8.0,76,0.00,,,0.00,Wunderground v.1.15,2013-07-21 01:00:00,
2013-07-20 22:10:00,74.5,66.4,29.67,SSW,203,9.0,22.0,76,0.00,,,0.00,Wunderground v.1.15,2013-07-21 01:10:00,
2013-07-20 22:20:00,74.4,66.3,29.67,South,188,8.0,8.0,76,0.00,,,0.00,Wunderground v.1.15,2013-07-21 01:20:00,
2013-07-20 22:30:00,74.3,66.2,29.67,WSW,249,9.0,9.0,76,0.00,,,0.00,Wunderground v.1.15,2013-07-21 01:30:00,
2013-07-20 22:40:00,74.1,66.4,29.65,SSE,167,8.0,22.0,77,0.00,,,0.00,Wunderground v.1.15,2013-07-21 01:40:00,
2013-07-20 22:50:00,73.8,66.5,29.65,SSW,199,8.0,8.0,78,0.00,,,0.00,Wunderground v.1.15,2013-07-21 01:50:00,
2013-07-20 23:00:00,73.6,66.7,29.69,SSE,167,5.0,22.0,79,0.00,,,0.00,Wunderground v.1.15,2013-07-21 02:00:00,
2013-07-20 23:20:00,73.1,66.6,29.69,SSW,198,7.0,22.0,80,0.00,,,0.00,Wunderground v.1.15,2013-07-21 02:20:00,
2013-07-20 23:30:00,72.8,66.6,29.66,SSW,207,7.0,22.0,81,0.00,,,0.00,Wunderground v.1.15,2013-07-21 02:30:00,
2013-07-20 23:40:00,72.7,66.9,29.66,SSW,204,7.0,7.0,82,0.00,,,0.00,Wunderground v.1.15,2013-07-21 02:40:00,
2013-07-20 23:50:00,72.4,66.6,29.68,SSW,198,7.0,22.0,82,0.00,,,0.00,Wunderground v.1.15,2013-07-21 02:50:00,